createdAt,value
2022-09-12T00:02:06.301Z,57.29
2022-09-12T00:07:09.876Z,57.19
2022-09-12T00:12:13.396Z,57.32
2022-09-12T00:17:17.016Z,57.13
2022-09-12T00:22:20.626Z,57.18
2022-09-12T00:27:24.250Z,57.25
2022-09-12T00:32:27.965Z,57.52
2022-09-12T00:37:31.587Z,57.37
2022-09-12T00:42:35.097Z,57.43
2022-09-12T00:47:38.616Z,57.32
2022-09-12T00:52:44.886Z,57.22
2022-09-12T00:57:51.376Z,57.39
2022-09-12T01:02:57.036Z,57.44
2022-09-12T01:08:01.576Z,57.48
2022-09-12T01:13:06.336Z,57.33
2022-09-12T01:18:14.227Z,57.40
2022-09-12T01:23:31.671Z,57.34
2022-09-12T01:28:44.986Z,57.52
2022-09-12T01:33:56.639Z,57.33
2022-09-12T01:39:01.526Z,57.42
2022-09-12T01:44:08.479Z,57.34
2022-09-12T01:49:14.976Z,57.26
2022-09-12T01:54:21.861Z,57.27
2022-09-12T01:59:27.207Z,57.45
2022-09-12T02:04:34.459Z,57.26
2022-09-12T02:09:41.519Z,57.23
2022-09-12T02:14:46.837Z,57.34
2022-09-12T02:19:53.312Z,57.43
2022-09-12T02:24:59.226Z,57.23
2022-09-12T02:30:02.636Z,57.42
2022-09-12T02:35:08.397Z,57.17
2022-09-12T02:40:12.815Z,57.40
2022-09-12T02:45:16.866Z,57.36
2022-09-12T02:50:20.498Z,57.35
2022-09-12T02:55:24.406Z,57.30
2022-09-12T03:00:29.788Z,57.39
2022-09-12T03:05:35.196Z,57.22
2022-09-12T03:10:42.031Z,57.51
2022-09-12T03:15:52.407Z,57.21
2022-09-12T03:21:01.408Z,57.48
2022-09-12T03:26:07.376Z,57.43
2022-09-12T03:31:14.886Z,57.30
2022-09-12T03:36:21.716Z,57.30
2022-09-12T03:41:25.247Z,57.33
2022-09-12T03:46:28.756Z,57.50
2022-09-12T03:51:32.477Z,57.30
2022-09-12T03:56:36.789Z,57.41
2022-09-12T04:01:41.447Z,57.51
2022-09-12T04:06:45.066Z,57.48
2022-09-12T04:11:48.484Z,57.52
2022-09-12T04:16:52.061Z,57.32
2022-09-12T04:21:55.608Z,57.23
2022-09-12T04:26:59.127Z,57.51
2022-09-12T04:32:03.440Z,57.25
2022-09-12T04:37:07.090Z,57.26
2022-09-12T04:42:10.686Z,57.14
2022-09-12T04:47:14.317Z,57.49
2022-09-12T04:52:17.948Z,57.42
2022-09-12T04:57:21.449Z,57.31
2022-09-12T05:02:25.299Z,57.38
2022-09-12T05:07:29.605Z,57.37
2022-09-12T05:12:33.639Z,57.39
2022-09-12T05:17:37.450Z,57.23
2022-09-12T05:22:41.070Z,57.16
2022-09-12T05:27:47.443Z,57.42
2022-09-12T05:32:54.148Z,57.37
2022-09-12T05:37:57.760Z,57.30
2022-09-12T05:43:01.288Z,57.18
2022-09-12T05:48:04.937Z,57.22
2022-09-12T05:53:08.666Z,57.31
2022-09-12T05:58:12.226Z,57.16
2022-09-12T06:03:15.846Z,57.40
2022-09-12T06:08:19.466Z,57.38
2022-09-12T06:13:23.266Z,57.08
2022-09-12T06:18:27.018Z,57.12
2022-09-12T06:23:31.037Z,57.08
2022-09-12T06:28:35.441Z,57.11
2022-09-12T06:33:42.996Z,57.33
2022-09-12T06:38:46.594Z,57.11
2022-09-12T06:43:50.830Z,56.97
2022-09-12T06:48:56.096Z,57.06
2022-09-12T06:54:00.628Z,57.08
2022-09-12T06:59:03.966Z,56.96
2022-09-12T07:04:07.960Z,57.00
2022-09-12T07:09:13.076Z,56.93
2022-09-12T07:14:16.637Z,56.82
2022-09-12T07:19:20.357Z,57.04
2022-09-12T07:24:23.870Z,56.75
2022-09-12T07:29:42.869Z,56.67
2022-09-12T07:34:46.766Z,56.91
2022-09-12T07:39:50.235Z,57.00
2022-09-12T07:44:54.111Z,56.80
2022-09-12T07:49:58.810Z,56.78
2022-09-12T07:55:02.721Z,56.73
2022-09-12T08:00:08.820Z,56.81
2022-09-12T08:05:12.466Z,56.65
2022-09-12T08:10:16.498Z,56.31
2022-09-12T08:15:20.416Z,56.47
2022-09-12T08:20:28.122Z,56.70
2022-09-12T08:25:32.056Z,56.61
2022-09-12T08:30:35.996Z,56.62
2022-09-12T08:35:39.504Z,56.78
2022-09-12T08:40:48.196Z,56.72
2022-09-12T08:45:54.729Z,56.85
2022-09-12T08:50:59.037Z,56.91
2022-09-12T08:56:05.676Z,56.75
2022-09-12T09:01:12.781Z,56.82
2022-09-12T09:06:21.995Z,56.82
2022-09-12T09:11:47.827Z,56.63
2022-09-12T09:16:52.975Z,56.47
2022-09-12T09:21:58.369Z,56.54
2022-09-12T09:27:14.265Z,56.57
2022-09-12T09:32:28.510Z,56.34
2022-09-12T09:37:36.433Z,56.36
2022-09-12T09:42:43.716Z,56.46
2022-09-12T09:47:49.257Z,56.55
2022-09-12T09:52:54.455Z,56.33
2022-09-12T09:57:58.376Z,56.47
2022-09-12T10:03:04.406Z,56.23
2022-09-12T10:08:08.786Z,56.08
2022-09-12T10:13:23.983Z,56.08
2022-09-12T10:18:38.167Z,55.97
2022-09-12T10:23:42.560Z,56.11
2022-09-12T10:28:49.672Z,56.12
2022-09-12T10:33:53.606Z,56.36
2022-09-12T10:38:58.376Z,56.21
2022-09-12T10:44:09.156Z,56.26
2022-09-12T10:49:23.166Z,56.10
2022-09-12T10:54:27.657Z,56.08
2022-09-12T10:59:36.366Z,56.04
2022-09-12T11:04:48.381Z,55.80
2022-09-12T11:09:56.494Z,55.98
2022-09-12T11:15:06.590Z,55.95
2022-09-12T11:20:33.442Z,55.77
2022-09-12T11:25:40.126Z,55.94
2022-09-12T11:30:48.477Z,55.84
2022-09-12T11:35:55.375Z,55.92
2022-09-12T11:41:01.220Z,55.80
2022-09-12T11:46:10.690Z,55.87
2022-09-12T11:51:18.466Z,56.04
2022-09-12T11:56:22.000Z,55.95
2022-09-12T12:01:28.377Z,56.00
2022-09-12T12:06:32.902Z,56.00
2022-09-12T12:11:39.463Z,56.05
2022-09-12T12:16:43.510Z,55.82
2022-09-12T12:21:47.878Z,55.82
2022-09-12T12:26:57.037Z,56.16
2022-09-12T12:32:19.067Z,56.02
2022-09-12T12:37:40.196Z,55.89
2022-09-12T12:43:07.781Z,56.02
2022-09-12T12:48:15.586Z,56.02
2022-09-12T12:53:22.644Z,55.89
2022-09-12T12:58:30.106Z,56.14
2022-09-12T13:03:34.371Z,55.88
2022-09-12T13:08:39.996Z,56.25
2022-09-12T13:13:48.937Z,56.16
2022-09-12T13:18:52.482Z,56.12
2022-09-12T13:24:03.040Z,55.99
2022-09-12T13:29:16.908Z,56.20
2022-09-12T13:34:21.470Z,56.17
2022-09-12T13:39:27.244Z,56.20
2022-09-12T13:44:31.444Z,56.08
2022-09-12T13:49:36.490Z,55.90
2022-09-12T13:54:40.818Z,56.35
2022-09-12T13:59:45.107Z,56.18
2022-09-12T14:05:09.150Z,56.25
2022-09-12T14:10:17.067Z,56.13
2022-09-12T14:15:25.096Z,56.16
2022-09-12T14:20:32.186Z,56.26
2022-09-12T14:25:41.110Z,56.16
2022-09-12T14:30:57.593Z,56.27
2022-09-12T14:36:12.648Z,56.20
2022-09-12T14:41:23.826Z,56.17
2022-09-12T14:46:30.875Z,56.11
2022-09-12T14:51:36.023Z,56.04
2022-09-12T14:56:41.336Z,56.21
2022-09-12T15:01:44.899Z,56.28
2022-09-12T15:06:48.470Z,56.18
2022-09-12T15:11:52.076Z,56.33
2022-09-12T15:16:55.697Z,56.30
2022-09-12T15:21:59.418Z,56.53
2022-09-12T15:27:03.036Z,56.33
2022-09-12T15:32:07.288Z,56.20
2022-09-12T15:37:13.860Z,56.39
2022-09-12T15:42:18.496Z,56.48
2022-09-12T15:47:22.016Z,56.39
2022-09-12T15:52:25.527Z,56.47
2022-09-12T15:57:29.246Z,56.51
2022-09-12T16:02:32.775Z,56.56
2022-09-12T16:07:36.275Z,56.22
2022-09-12T16:12:39.786Z,56.34
2022-09-12T16:17:43.443Z,56.56
2022-09-12T16:22:47.446Z,56.54
2022-09-12T16:27:51.056Z,56.65
2022-09-12T16:32:54.780Z,56.56
2022-09-12T16:37:58.401Z,56.79
2022-09-12T16:43:01.910Z,56.71
2022-09-12T16:48:05.759Z,56.71
2022-09-12T16:53:09.548Z,56.79
2022-09-12T16:58:13.083Z,56.79
2022-09-12T17:03:16.576Z,56.85
2022-09-12T17:08:22.498Z,56.97
2022-09-12T17:13:36.687Z,56.83
2022-09-12T17:18:49.766Z,56.89
2022-09-12T17:23:53.216Z,57.07
2022-09-12T17:28:56.790Z,56.83
2022-09-12T17:34:00.639Z,56.83
2022-09-12T17:39:04.436Z,56.86
2022-09-12T17:44:09.425Z,57.07
2022-09-12T17:49:13.919Z,57.07
2022-09-12T17:54:18.455Z,56.94
2022-09-12T17:59:24.356Z,57.10
2022-09-12T18:04:28.169Z,56.93
2022-09-12T18:09:31.880Z,57.10
2022-09-12T18:14:35.496Z,56.96
2022-09-12T18:19:39.423Z,57.10
2022-09-12T18:24:43.038Z,56.96
2022-09-12T18:29:58.898Z,56.94
2022-09-12T18:35:10.357Z,56.73
2022-09-12T18:40:13.949Z,56.99
2022-09-12T18:45:17.679Z,57.06
2022-09-12T18:50:22.747Z,57.02
2022-09-12T18:55:26.876Z,56.94
2022-09-12T19:00:30.620Z,57.19
2022-09-12T19:05:35.221Z,57.10
2022-09-12T19:10:38.737Z,56.91
2022-09-12T19:15:42.487Z,57.08
2022-09-12T19:20:50.366Z,56.94
2022-09-12T19:25:57.080Z,57.11
2022-09-12T19:31:00.713Z,57.24
2022-09-12T19:36:05.090Z,56.91
2022-09-12T19:41:14.640Z,57.00
2022-09-12T19:46:19.702Z,57.14
2022-09-12T19:51:24.297Z,57.19
2022-09-12T19:56:28.090Z,57.21
2022-09-12T20:01:32.253Z,57.14
2022-09-12T20:06:36.447Z,57.00
2022-09-12T20:11:39.960Z,57.20
2022-09-12T20:16:45.150Z,57.18
2022-09-12T20:21:48.726Z,57.09
2022-09-12T20:26:52.175Z,57.29
2022-09-12T20:31:55.736Z,57.24
2022-09-12T20:36:59.171Z,57.17
2022-09-12T20:42:02.786Z,57.19
2022-09-12T20:47:06.926Z,57.20
2022-09-12T20:52:10.536Z,57.15
2022-09-12T20:57:14.067Z,56.96
2022-09-12T21:02:18.052Z,56.95
2022-09-12T21:07:21.698Z,57.27
2022-09-12T21:12:25.107Z,57.44
2022-09-12T21:17:28.634Z,57.29
2022-09-12T21:22:32.236Z,57.24
2022-09-12T21:27:35.762Z,57.34
2022-09-12T21:32:39.486Z,57.29
2022-09-12T21:37:43.413Z,57.50
2022-09-12T21:42:48.169Z,57.46
2022-09-12T21:47:51.766Z,57.22
2022-09-12T21:52:55.386Z,57.26
2022-09-12T21:57:58.901Z,57.19
2022-09-12T22:03:03.126Z,57.26
2022-09-12T22:08:06.655Z,57.37
2022-09-12T22:13:10.264Z,57.30
2022-09-12T22:18:13.776Z,57.12
2022-09-12T22:23:35.116Z,57.36
2022-09-12T22:28:38.836Z,57.45
2022-09-12T22:33:42.266Z,57.22
2022-09-12T22:38:45.902Z,57.19
2022-09-12T22:43:49.482Z,57.16
2022-09-12T22:48:55.186Z,57.38
2022-09-12T22:53:58.656Z,57.18
2022-09-12T22:59:02.176Z,57.23
2022-09-12T23:04:05.790Z,57.37
2022-09-12T23:09:09.310Z,57.40
2022-09-12T23:14:12.719Z,57.40
2022-09-12T23:19:16.236Z,57.27
2022-09-12T23:24:20.008Z,57.36
2022-09-12T23:29:23.676Z,57.47
2022-09-12T23:34:27.297Z,57.34
2022-09-12T23:39:31.116Z,57.25
2022-09-12T23:44:34.626Z,57.26
2022-09-12T23:49:38.146Z,57.38
2022-09-12T23:54:41.753Z,57.43
2022-09-12T23:59:45.274Z,57.38
